Bodrum, Turkey

5:46 AM EEST on September 23, 2014 (GMT +0300)
Birger's automatic weatherstation | Change Station
CLOSE
Current Station
Personal Weather Station
Location: Bodrum, Mugla - TURKEY
Elevation: 364 ft
Nearby Weather Stations

Elev 364 ft 37.05 °N, 27.41 °E | Updated 9 seconds ago

Clear
Clear
74.1 °F
Feels Like 74 °F
N
0.3
Wind Variable Wind from West
Gusts 0.3 mph

Today
High -- | Low -- °F
--% Chance of Precip.
Yesterday
High -- | Low -- °F
Precip. -- in
6:58 AM 7:06 PM
Waning Crescent, 1% visible
Pressure 29.83 in
Visibility -9999.0 miles
Clouds
Heat Index 74 °F
Dew Point 68 °F
Humidity 82%
Rainfall 0.00 in
Snow Depth Not available.
UV Not available.
Pollen Not available.
Air Quality Not available.
Flu Activity Not available.
METAR LTFE 230220Z 11003KT 080V140 CAVOK 18/15 Q1010 NOSIG RMK RWY10 06004KT 010V100

More Conditions Fewer Conditions

Pressure 29.83 in
Visibility -9999.0 miles
Clouds
Heat Index 74 °F
Dew Point 68 °F
Humidity 82%
Rainfall 0.00 in
Snow Depth Not available.
UV Not available.
Pollen Not available.
Air Quality Not available.
Flu Activity Not available.
METAR LTFE 230220Z 11003KT 080V140 CAVOK 18/15 Q1010 NOSIG RMK RWY10 06004KT 010V100

More Conditions Fewer Conditions

10-Day Weather Forecast

Almanac

Astronomy

Sep. 23, 2014 Rise Set
Actual Time 6:58 AM EEST 7:06 PM EEST
Civil Twilight 6:32 AM EEST 7:32 PM EEST
Nautical Twilight 6:02 AM EEST 8:02 PM EEST
Astronomical Twilight 5:31 AM EEST 8:32 PM EEST
Moon 6:05 AM EEST 6:34 PM EEST
Length of Visible Light 12h 59m
Length of Day
12h 07m
Tomorrow will be 2m 21s shorter.
Waning Crescent, 1% of the Moon is Illuminated
Sep 22
Waning Crescent
Sep 24
New
Oct 1
First Quarter
Oct 8
Full
Oct 15
Last Quarter

Yesterday's Extremes

Country Highs Country Lows

Community

WunderPhotos

Upload Photos

1,755,587 photos uploaded!

Nearby

Snow Depth

Not available.

Earthquake Activity

City Distance Mag. Time & Date
No recent earthquake activity has been reported nearby.
Minimum magnitude displayed is 2.5.

Coastal Water Temperatures

Place Temperature
No Stations Reporting

Nearby Weather Stations